Time;durP1;ratioP1;P1;durP2;ratioP2;P2;SDS_P1;SDS_P2;PMS_P1;PMS_P2;Temp;Humidity;BMP_temperature;BMP_pressure;BME280_temperature;BME280_humidity;BME280_pressure;Samples;Min_cycle;Max_cycle;Signal;HPM_P1;HPM_P2
2021/07/30 00:01:20;;;;;;;4.23;1.80;;;15.90;99.90;;;;;;5038422;28;20215;-47
2021/07/30 00:03:46;;;;;;;3.13;2.13;;;15.90;99.90;;;;;;5043953;28;20187;-46
2021/07/30 00:06:13;;;;;;;4.00;1.60;;;15.90;99.90;;;;;;5045939;28;20219;-46
2021/07/30 00:08:40;;;;;;;4.77;1.80;;;15.90;99.90;;;;;;5042269;28;20195;-46
2021/07/30 00:11:08;;;;;;;6.43;1.43;;;15.90;99.90;;;;;;5046102;28;20856;-48
2021/07/30 00:13:35;;;;;;;3.83;1.60;;;15.90;99.90;;;;;;5027594;28;20435;-49
2021/07/30 00:16:02;;;;;;;4.13;2.17;;;15.80;99.90;;;;;;5045416;28;20229;-46
2021/07/30 00:18:28;;;;;;;2.57;1.53;;;15.80;99.90;;;;;;5036084;28;20219;-48
2021/07/30 00:20:56;;;;;;;5.90;1.90;;;15.80;99.90;;;;;;5044902;28;20200;-47
2021/07/30 00:23:22;;;;;;;5.53;1.90;;;15.80;99.90;;;;;;5043016;28;20275;-47
2021/07/30 00:25:49;;;;;;;3.50;1.80;;;15.80;99.90;;;;;;5043862;28;20245;-46
2021/07/30 00:28:17;;;;;;;6.83;2.20;;;15.70;99.90;;;;;;5042205;28;20198;-47
2021/07/30 00:30:43;;;;;;;5.83;1.80;;;15.70;99.90;;;;;;5032778;28;20199;-49
2021/07/30 00:33:10;;;;;;;4.03;2.10;;;15.70;99.90;;;;;;5039181;28;20664;-46
2021/07/30 00:35:37;;;;;;;2.67;1.70;;;15.70;99.90;;;;;;5040963;28;20207;-45
2021/07/30 00:38:03;;;;;;;6.53;2.17;;;15.70;99.90;;;;;;5045514;28;20278;-46
2021/07/30 00:40:30;;;;;;;4.67;1.73;;;15.60;99.90;;;;;;5041654;28;20564;-46
2021/07/30 00:42:56;;;;;;;6.53;1.90;;;15.60;99.90;;;;;;5045461;28;20665;-47
2021/07/30 00:45:24;;;;;;;4.90;2.17;;;15.60;99.90;;;;;;5028491;28;20214;-48
2021/07/30 00:47:51;;;;;;;3.00;1.70;;;15.60;99.90;;;;;;5037449;28;20191;-46
2021/07/30 00:50:19;;;;;;;4.90;2.10;;;15.60;99.90;;;;;;5043546;28;20292;-50
2021/07/30 00:52:46;;;;;;;5.23;2.50;;;15.50;99.90;;;;;;5042897;28;20789;-47
2021/07/30 00:55:12;;;;;;;6.10;2.57;;;15.50;99.90;;;;;;5045330;28;20218;-47
2021/07/30 00:57:41;;;;;;;5.63;2.40;;;15.50;99.90;;;;;;5041363;28;20207;-47
2021/07/30 01:00:08;;;;;;;4.00;2.17;;;15.50;99.90;;;;;;5044799;28;20246;-46
2021/07/30 01:02:36;;;;;;;4.47;2.03;;;15.50;99.90;;;;;;5019449;28;20199;-46
2021/07/30 01:05:04;;;;;;;1.87;1.53;;;15.40;99.90;;;;;;5044511;28;20202;-48
2021/07/30 01:07:30;;;;;;;2.63;1.83;;;15.40;99.90;;;;;;5041454;28;20219;-47
2021/07/30 01:09:57;;;;;;;8.43;2.20;;;15.40;99.90;;;;;;5043517;28;20676;-46
2021/07/30 01:12:24;;;;;;;5.20;2.20;;;15.40;99.90;;;;;;5042613;28;20246;-47
2021/07/30 01:14:53;;;;;;;5.47;2.00;;;15.40;99.90;;;;;;5043349;28;20183;-47
2021/07/30 01:17:20;;;;;;;7.73;2.77;;;15.30;99.90;;;;;;5027057;28;20284;-51
2021/07/30 01:19:48;;;;;;;8.07;2.37;;;15.30;99.90;;;;;;5037056;28;21017;-46
2021/07/30 01:22:21;;;;;;;4.83;2.73;;;15.30;99.90;;;;;;5044424;28;20270;-47
2021/07/30 01:24:49;;;;;;;2.87;1.90;;;15.30;99.90;;;;;;5036305;28;20329;-46
2021/07/30 01:27:16;;;;;;;4.77;2.03;;;15.20;99.90;;;;;;5042380;28;20230;-47
2021/07/30 01:29:43;;;;;;;7.23;2.20;;;15.20;99.90;;;;;;5040065;28;20191;-48
2021/07/30 01:32:10;;;;;;;4.60;1.77;;;15.20;99.90;;;;;;5043888;28;20198;-49
2021/07/30 01:34:36;;;;;;;4.27;2.00;;;15.10;99.90;;;;;;5018862;28;20839;-51
2021/07/30 01:37:03;;;;;;;4.93;2.10;;;15.10;99.90;;;;;;5044186;28;20697;-46
2021/07/30 01:39:30;;;;;;;3.57;1.87;;;15.00;99.90;;;;;;5040137;28;20641;-47
2021/07/30 01:41:58;;;;;;;7.53;2.23;;;15.10;99.90;;;;;;5044324;28;20199;-49
2021/07/30 01:44:25;;;;;;;5.43;2.20;;;15.00;99.90;;;;;;5052412;28;20332;-48
2021/07/30 01:46:51;;;;;;;5.20;2.03;;;15.00;99.90;;;;;;5064287;28;20210;-46
2021/07/30 01:49:18;;;;;;;2.90;2.17;;;15.00;99.90;;;;;;5023856;28;20199;-49
2021/07/30 01:51:45;;;;;;;7.67;2.10;;;15.00;99.90;;;;;;5043859;28;20253;-46
2021/07/30 01:54:14;;;;;;;3.80;2.33;;;15.00;99.90;;;;;;5040600;28;20229;-46
2021/07/30 01:56:41;;;;;;;5.33;2.57;;;15.00;99.90;;;;;;5043660;28;20276;-45
2021/07/30 01:59:09;;;;;;;6.43;2.40;;;15.00;99.90;;;;;;5046233;28;20684;-44
2021/07/30 02:01:35;;;;;;;6.63;2.60;;;14.90;99.90;;;;;;5063038;28;20198;-49
2021/07/30 02:04:02;;;;;;;6.27;2.60;;;14.90;99.90;;;;;;5053315;28;20187;-45
2021/07/30 02:06:29;;;;;;;4.13;2.00;;;14.90;99.90;;;;;;5031413;28;20255;-46
2021/07/30 02:08:55;;;;;;;6.10;2.10;;;14.90;99.90;;;;;;5042335;28;20549;-45
2021/07/30 02:11:22;;;;;;;5.20;2.03;;;14.80;99.90;;;;;;5040182;28;20187;-46
2021/07/30 02:16:34;;;;;;;3.80;2.00;;;14.80;99.90;;;;;;5041591;28;20219;-47
2021/07/30 02:19:01;;;;;;;2.93;2.03;;;14.80;99.90;;;;;;5041829;28;20211;-47
2021/07/30 02:21:28;;;;;;;7.30;2.70;;;14.80;99.90;;;;;;5025529;28;20234;-45
2021/07/30 02:23:54;;;;;;;7.80;2.63;;;14.80;99.90;;;;;;5042537;28;20202;-46
2021/07/30 02:26:21;;;;;;;6.57;2.30;;;14.80;99.90;;;;;;5040126;28;20207;-46
2021/07/30 02:28:47;;;;;;;7.80;2.50;;;14.80;99.90;;;;;;5042932;28;20656;-48
2021/07/30 02:31:15;;;;;;;5.80;2.47;;;14.70;99.90;;;;;;5038409;28;20221;-46
2021/07/30 02:33:43;;;;;;;5.53;2.43;;;14.70;99.90;;;;;;5043466;28;20195;-47
2021/07/30 02:36:09;;;;;;;5.40;2.47;;;14.70;99.90;;;;;;5027076;28;20222;-47
2021/07/30 02:38:36;;;;;;;5.13;2.20;;;14.70;99.90;;;;;;5041096;28;20199;-46
2021/07/30 02:41:03;;;;;;;5.93;2.37;;;14.70;99.90;;;;;;5041341;28;20199;-46
2021/07/30 02:43:29;;;;;;;5.37;2.23;;;14.60;99.90;;;;;;5041390;28;20187;-46
2021/07/30 02:45:56;;;;;;;3.93;2.80;;;14.60;99.90;;;;;;5041339;28;20238;-45
2021/07/30 02:48:23;;;;;;;4.83;2.43;;;14.60;99.90;;;;;;5040289;28;20188;-47
2021/07/30 02:50:51;;;;;;;5.13;2.87;;;14.60;99.90;;;;;;5043219;28;20568;-46
2021/07/30 02:53:17;;;;;;;8.97;2.50;;;14.60;99.90;;;;;;5022562;28;20199;-48
2021/07/30 02:55:46;;;;;;;6.50;2.70;;;14.50;99.90;;;;;;5043540;28;20223;-48
2021/07/30 02:58:12;;;;;;;7.43;2.67;;;14.50;99.90;;;;;;5039226;28;20186;-49
2021/07/30 03:00:39;;;;;;;4.60;2.40;;;14.50;99.90;;;;;;5042700;28;20219;-46
2021/07/30 03:03:06;;;;;;;6.17;2.60;;;14.50;99.90;;;;;;5033036;28;20712;-47
2021/07/30 03:05:33;;;;;;;7.13;2.60;;;14.40;99.90;;;;;;5042034;28;20191;-46
2021/07/30 03:08:01;;;;;;;5.37;2.60;;;14.50;99.90;;;;;;5022616;28;20211;-47
2021/07/30 03:10:28;;;;;;;4.07;2.60;;;14.50;99.90;;;;;;5039767;28;20183;-46
2021/07/30 03:12:54;;;;;;;2.37;2.17;;;14.50;99.90;;;;;;5042861;28;20191;-48
2021/07/30 03:15:21;;;;;;;4.97;2.50;;;14.50;99.90;;;;;;5039156;28;20194;-46
2021/07/30 03:17:48;;;;;;;2.93;1.93;;;14.40;99.90;;;;;;5043209;28;20649;-48
2021/07/30 03:20:14;;;;;;;9.20;2.67;;;14.40;99.90;;;;;;5038204;28;20207;-46
2021/07/30 03:22:41;;;;;;;11.43;3.50;;;14.40;99.90;;;;;;5026678;28;20226;-46
2021/07/30 03:25:10;;;;;;;6.00;3.07;;;14.40;99.90;;;;;;5039947;28;20530;-47
2021/07/30 03:27:37;;;;;;;8.30;3.77;;;14.40;99.90;;;;;;5043993;28;20845;-46
2021/07/30 03:30:04;;;;;;;12.87;5.70;;;14.30;99.90;;;;;;5044420;28;20701;-46
2021/07/30 03:32:31;;;;;;;9.10;3.37;;;14.30;99.90;;;;;;5045117;28;20192;-46
2021/07/30 03:34:58;;;;;;;6.47;4.57;;;14.30;99.90;;;;;;5045487;28;20206;-50
2021/07/30 03:37:25;;;;;;;8.17;5.50;;;14.30;99.90;;;;;;5035453;28;20223;-50
2021/07/30 03:39:52;;;;;;;11.93;5.00;;;14.30;99.90;;;;;;5019136;28;20241;-46
2021/07/30 03:42:19;;;;;;;9.73;5.40;;;14.30;99.90;;;;;;5045902;28;20212;-47
2021/07/30 03:44:46;;;;;;;11.47;3.97;;;14.30;99.90;;;;;;5041335;28;20192;-45
2021/07/30 03:47:13;;;;;;;11.30;5.37;;;14.20;99.90;;;;;;5045205;28;20211;-48
2021/07/30 03:49:39;;;;;;;10.93;4.07;;;14.20;99.90;;;;;;5043826;28;20194;-48
2021/07/30 03:52:06;;;;;;;8.97;4.27;;;14.30;99.90;;;;;;5045163;28;20180;-46
2021/07/30 03:54:33;;;;;;;9.43;4.97;;;14.20;99.90;;;;;;5022696;28;20691;-48
2021/07/30 03:57:00;;;;;;;8.43;4.37;;;14.20;99.90;;;;;;5043289;28;20211;-46
2021/07/30 03:59:28;;;;;;;7.20;3.77;;;14.20;99.90;;;;;;5045873;28;20306;-47
2021/07/30 04:01:54;;;;;;;5.97;3.20;;;14.20;99.90;;;;;;5034140;28;20194;-46
2021/07/30 04:04:21;;;;;;;7.53;3.70;;;14.20;99.90;;;;;;5046054;28;20198;-46
2021/07/30 04:06:48;;;;;;;13.30;3.60;;;14.20;99.90;;;;;;5036812;28;20827;-46
2021/07/30 04:09:15;;;;;;;6.20;3.33;;;14.20;99.90;;;;;;5029835;28;20298;-46
2021/07/30 04:11:42;;;;;;;6.63;5.27;;;14.20;99.90;;;;;;5043348;28;20196;-47
2021/07/30 04:14:10;;;;;;;11.63;4.03;;;14.20;99.90;;;;;;5045465;28;20195;-47
2021/07/30 04:16:38;;;;;;;9.30;4.60;;;14.20;99.90;;;;;;5043685;28;20583;-44
2021/07/30 04:19:07;;;;;;;11.90;4.50;;;14.20;99.90;;;;;;5044392;28;20294;-47
2021/07/30 04:21:34;;;;;;;9.50;4.03;;;14.20;99.90;;;;;;5039504;28;20282;-49
2021/07/30 04:24:01;;;;;;;11.13;3.97;;;14.20;99.90;;;;;;5026659;28;21114;-46
2021/07/30 04:26:28;;;;;;;15.73;5.30;;;14.20;99.90;;;;;;5045483;28;20211;-46
2021/07/30 04:28:55;;;;;;;8.23;4.67;;;14.20;99.90;;;;;;5041730;28;20195;-45
2021/07/30 04:31:21;;;;;;;10.73;4.17;;;14.30;99.90;;;;;;5045072;28;20206;-46
2021/07/30 04:33:49;;;;;;;8.03;4.33;;;14.20;99.90;;;;;;5035536;28;20188;-46
2021/07/30 04:36:17;;;;;;;6.40;3.37;;;14.30;99.90;;;;;;5045074;28;20211;-46
2021/07/30 04:38:44;;;;;;;5.17;4.10;;;14.30;99.90;;;;;;5031473;28;20192;-48
2021/07/30 04:41:11;;;;;;;6.97;4.40;;;14.30;99.90;;;;;;5029610;28;20718;-48
2021/07/30 04:43:38;;;;;;;12.60;6.27;;;14.30;99.90;;;;;;5041965;28;20197;-48
2021/07/30 04:46:05;;;;;;;7.07;3.73;;;14.30;99.90;;;;;;5044857;28;20916;-46
2021/07/30 04:48:31;;;;;;;9.30;4.73;;;14.40;99.90;;;;;;5043040;28;20187;-45
2021/07/30 04:51:02;;;;;;;12.73;4.83;;;14.40;99.90;;;;;;5041414;28;20241;-48
2021/07/30 04:53:29;;;;;;;8.70;4.07;;;14.40;99.90;;;;;;5037551;28;20203;-49
2021/07/30 04:55:56;;;;;;;10.20;5.20;;;14.50;99.90;;;;;;5021027;28;20203;-45
2021/07/30 04:58:22;;;;;;;9.17;4.60;;;14.50;99.90;;;;;;5031285;28;20912;-48
2021/07/30 05:00:49;;;;;;;7.10;5.40;;;14.50;99.90;;;;;;5026588;28;20227;-46
2021/07/30 05:03:16;;;;;;;16.03;7.77;;;14.60;99.90;;;;;;5037377;28;20199;-46
2021/07/30 05:05:42;;;;;;;6.80;5.60;;;14.60;99.90;;;;;;5042275;28;20435;-45
2021/07/30 05:08:10;;;;;;;12.00;5.67;;;14.60;99.90;;;;;;5040741;28;20195;-47
2021/07/30 05:10:37;;;;;;;12.17;4.37;;;14.60;99.90;;;;;;5019761;28;21045;-48
2021/07/30 05:13:04;;;;;;;7.00;4.50;;;14.70;99.90;;;;;;5028282;28;20210;-45
2021/07/30 05:15:31;;;;;;;14.20;5.80;;;14.70;99.90;;;;;;5036430;28;20210;-62
2021/07/30 05:17:58;;;;;;;10.83;5.37;;;14.70;99.90;;;;;;5042501;28;20290;-47
2021/07/30 05:20:25;;;;;;;11.97;5.77;;;14.70;99.90;;;;;;5033893;28;20285;-46
2021/07/30 05:22:52;;;;;;;6.70;4.97;;;14.80;99.90;;;;;;5016621;28;20205;-45
2021/07/30 05:25:20;;;;;;;8.50;5.13;;;14.80;99.90;;;;;;5036490;28;20203;-47
2021/07/30 05:27:46;;;;;;;11.40;6.10;;;14.90;99.90;;;;;;5025563;28;20210;-45
2021/07/30 05:30:13;;;;;;;8.23;4.80;;;14.90;99.90;;;;;;5034573;28;20218;-45
2021/07/30 05:32:40;;;;;;;6.47;4.33;;;15.00;99.90;;;;;;5042169;28;20225;-48
2021/07/30 05:35:07;;;;;;;8.87;5.27;;;15.00;99.90;;;;;;5037244;28;20198;-48
2021/07/30 05:37:34;;;;;;;9.10;5.17;;;15.00;99.90;;;;;;5023035;28;20212;-48
2021/07/30 05:40:01;;;;;;;9.90;4.63;;;15.00;99.90;;;;;;5019680;28;20223;-45
2021/07/30 05:42:28;;;;;;;9.30;5.13;;;15.10;99.90;;;;;;5028667;28;20204;-46
2021/07/30 05:44:55;;;;;;;6.37;5.10;;;15.20;99.90;;;;;;5029528;28;23220;-50
2021/07/30 05:47:22;;;;;;;10.13;4.97;;;15.20;99.90;;;;;;5043455;28;20306;-49
2021/07/30 05:49:48;;;;;;;9.57;5.30;;;15.30;99.90;;;;;;5039503;28;20225;-45
2021/07/30 05:52:16;;;;;;;8.90;5.13;;;15.30;99.90;;;;;;5037031;28;20275;-47
2021/07/30 05:54:42;;;;;;;7.80;5.33;;;15.40;99.90;;;;;;5036952;28;20268;-47
2021/07/30 05:57:09;;;;;;;10.57;5.13;;;15.40;99.90;;;;;;5025340;28;20242;-47
2021/07/30 05:59:37;;;;;;;7.17;4.77;;;15.50;99.90;;;;;;5041146;28;20196;-49
2021/07/30 06:02:04;;;;;;;9.30;4.73;;;15.50;99.90;;;;;;5033628;28;20920;-46
2021/07/30 06:04:30;;;;;;;10.97;4.90;;;15.60;99.90;;;;;;5041736;28;20203;-47
2021/07/30 06:06:57;;;;;;;10.57;6.83;;;15.60;99.90;;;;;;5040039;28;20910;-47
2021/07/30 06:09:23;;;;;;;16.33;6.13;;;15.80;99.90;;;;;;5042735;28;20198;-47
2021/07/30 06:11:50;;;;;;;14.07;6.10;;;15.80;99.90;;;;;;5034917;28;20191;-46
2021/07/30 06:14:17;;;;;;;13.10;5.23;;;15.90;99.90;;;;;;5028017;28;20200;-45
2021/07/30 06:16:44;;;;;;;10.70;5.13;;;15.90;99.90;;;;;;5035514;28;20215;-46
2021/07/30 06:19:11;;;;;;;11.40;5.63;;;16.00;99.90;;;;;;5041142;28;20206;-47
2021/07/30 06:21:38;;;;;;;9.13;6.10;;;16.00;99.90;;;;;;5032959;28;20219;-45
2021/07/30 06:24:05;;;;;;;9.53;5.93;;;16.00;99.90;;;;;;5041633;28;20199;-46
2021/07/30 06:26:31;;;;;;;14.60;5.83;;;16.10;99.90;;;;;;5037011;28;20215;-45
2021/07/30 06:28:58;;;;;;;9.10;5.10;;;16.10;99.90;;;;;;5024617;28;21191;-45
2021/07/30 06:31:25;;;;;;;13.60;6.73;;;16.20;99.90;;;;;;5038502;28;20199;-46
2021/07/30 06:33:53;;;;;;;13.60;6.63;;;16.30;99.90;;;;;;5039422;28;20274;-46
2021/07/30 06:36:19;;;;;;;9.03;6.03;;;16.40;99.90;;;;;;5042679;28;20676;-45
2021/07/30 06:38:46;;;;;;;9.60;5.30;;;16.40;99.90;;;;;;5039288;28;20195;-45
2021/07/30 06:41:15;;;;;;;15.03;5.33;;;16.40;99.90;;;;;;5038164;28;20215;-45
2021/07/30 06:43:42;;;;;;;8.97;5.53;;;16.50;99.90;;;;;;5040934;28;20241;-48
2021/07/30 06:46:08;;;;;;;11.20;5.43;;;16.50;99.90;;;;;;5026511;28;20955;-46
2021/07/30 06:48:35;;;;;;;12.10;5.30;;;16.60;99.90;;;;;;5037065;28;20617;-45
2021/07/30 06:51:03;;;;;;;11.63;5.83;;;16.70;99.90;;;;;;5040425;28;20183;-46
2021/07/30 06:53:30;;;;;;;14.00;5.37;;;16.80;99.90;;;;;;5042747;28;20709;-45
2021/07/30 06:55:56;;;;;;;9.10;4.97;;;16.90;99.90;;;;;;5033612;28;21040;-46
2021/07/30 06:58:23;;;;;;;8.53;5.17;;;17.00;99.90;;;;;;5033366;28;20638;-49
2021/07/30 07:00:50;;;;;;;10.00;6.03;;;17.00;99.90;;;;;;5022312;28;20226;-46
2021/07/30 07:03:16;;;;;;;8.43;5.20;;;17.10;99.90;;;;;;5040740;28;20673;-47
2021/07/30 07:05:43;;;;;;;9.53;5.70;;;17.10;99.90;;;;;;5036630;28;20215;-48
2021/07/30 07:08:12;;;;;;;10.97;7.03;;;17.20;99.90;;;;;;5045930;28;20199;-47
2021/07/30 07:10:39;;;;;;;10.90;5.80;;;17.30;99.90;;;;;;5045107;28;20191;-48
2021/07/30 07:13:06;;;;;;;13.23;6.10;;;17.40;99.90;;;;;;5034847;28;20834;-46
2021/07/30 07:15:32;;;;;;;10.17;5.73;;;17.40;99.90;;;;;;5042704;28;20204;-46
2021/07/30 07:17:59;;;;;;;9.43;5.33;;;17.50;99.90;;;;;;5028338;28;20211;-48
2021/07/30 07:20:26;;;;;;;10.37;5.80;;;17.60;99.90;;;;;;5043835;28;20223;-48
2021/07/30 07:22:52;;;;;;;9.83;5.50;;;17.70;99.90;;;;;;5037933;28;20202;-46
2021/07/30 07:25:20;;;;;;;8.83;5.30;;;17.80;99.90;;;;;;5030554;28;20287;-46
2021/07/30 07:27:47;;;;;;;10.87;5.63;;;17.90;99.90;;;;;;5035524;28;20203;-47
2021/07/30 07:30:14;;;;;;;10.03;6.20;;;18.00;99.90;;;;;;5039650;28;20207;-47
2021/07/30 07:32:40;;;;;;;11.07;5.80;;;18.00;99.90;;;;;;5014939;28;20547;-49
2021/07/30 07:35:08;;;;;;;12.03;4.77;;;18.10;99.90;;;;;;5030141;28;20215;-46
2021/07/30 07:37:34;;;;;;;11.47;6.00;;;18.10;99.90;;;;;;5039064;28;20219;-45
2021/07/30 07:40:01;;;;;;;9.30;5.67;;;18.10;99.90;;;;;;5028253;28;20218;-49
2021/07/30 07:42:29;;;;;;;10.90;5.40;;;18.20;99.90;;;;;;5035628;28;20242;-48
2021/07/30 07:44:56;;;;;;;13.50;6.60;;;18.30;99.90;;;;;;5027697;28;20199;-46
2021/07/30 07:47:22;;;;;;;9.83;5.30;;;18.40;99.90;;;;;;5019597;28;20778;-50
2021/07/30 07:49:49;;;;;;;11.57;5.23;;;18.40;99.90;;;;;;5029212;28;20223;-46
2021/07/30 07:52:15;;;;;;;8.60;5.50;;;18.50;99.90;;;;;;5030081;28;20191;-47
2021/07/30 07:54:42;;;;;;;12.27;5.20;;;18.60;99.90;;;;;;5042669;28;20195;-47
2021/07/30 07:57:09;;;;;;;9.17;5.20;;;18.60;99.90;;;;;;5036464;28;20204;-46
2021/07/30 07:59:37;;;;;;;10.93;4.93;;;18.60;99.90;;;;;;5034030;28;20779;-46
2021/07/30 08:02:06;;;;;;;10.87;4.40;;;18.70;99.90;;;;;;5040098;28;20207;-45
2021/07/30 08:04:33;;;;;;;9.80;4.50;;;18.80;99.90;;;;;;5024829;28;20214;-45
2021/07/30 08:07:02;;;;;;;5.20;4.27;;;18.90;99.90;;;;;;5041783;28;20823;-45
2021/07/30 08:09:29;;;;;;;13.63;4.80;;;18.90;99.90;;;;;;5045971;28;20198;-47
2021/07/30 08:11:56;;;;;;;8.87;4.13;;;19.00;99.90;;;;;;5042675;28;20180;-44
2021/07/30 08:14:22;;;;;;;11.13;4.73;;;19.10;99.90;;;;;;5039304;28;20210;-45
2021/07/30 08:16:51;;;;;;;9.73;4.43;;;19.10;99.90;;;;;;5043816;28;20215;-46
2021/07/30 08:19:18;;;;;;;9.27;5.20;;;19.20;99.90;;;;;;5026238;28;20200;-45
2021/07/30 08:21:45;;;;;;;5.40;3.80;;;19.20;99.90;;;;;;5042028;28;20268;-47
2021/07/30 08:24:12;;;;;;;8.57;4.87;;;19.30;99.90;;;;;;5043251;28;20356;-45
2021/07/30 08:26:39;;;;;;;11.70;4.47;;;19.30;99.90;;;;;;5045545;28;20211;-47
2021/07/30 08:29:05;;;;;;;8.27;4.53;;;19.40;99.90;;;;;;5036486;28;20606;-48
2021/07/30 08:31:32;;;;;;;8.47;4.67;;;19.40;99.90;;;;;;5045516;28;20203;-47
2021/07/30 08:34:00;;;;;;;9.17;4.40;;;19.50;99.90;;;;;;5027313;28;20194;-46
2021/07/30 08:36:26;;;;;;;6.97;4.37;;;19.70;99.90;;;;;;5040370;28;20696;-44
2021/07/30 08:38:55;;;;;;;7.60;4.60;;;19.80;99.90;;;;;;5042590;28;20206;-46
2021/07/30 08:41:22;;;;;;;12.27;5.50;;;19.90;99.90;;;;;;5044415;28;20255;-46
2021/07/30 08:43:53;;;;;;;9.97;4.40;;;20.00;99.90;;;;;;5043706;28;20183;-47
2021/07/30 08:46:23;;;;;;;8.13;4.63;;;20.00;99.90;;;;;;5038989;28;20223;-46
2021/07/30 08:48:50;;;;;;;6.87;3.47;;;20.00;99.90;;;;;;5034385;28;20195;-46
2021/07/30 08:51:21;;;;;;;8.73;3.13;;;20.10;99.90;;;;;;5037154;28;20198;-46
2021/07/30 08:53:48;;;;;;;7.00;3.43;;;20.00;99.90;;;;;;5043434;28;20286;-47
2021/07/30 08:56:16;;;;;;;10.07;3.40;;;20.10;99.90;;;;;;5043255;28;20238;-45
2021/07/30 08:58:42;;;;;;;7.43;3.33;;;20.20;99.90;;;;;;5044402;28;20231;-47
2021/07/30 09:01:10;;;;;;;7.17;3.23;;;20.20;99.90;;;;;;5036471;28;20215;-45
2021/07/30 09:03:37;;;;;;;6.63;4.20;;;20.30;99.20;;;;;;5042622;28;20195;-45
2021/07/30 09:06:16;;;;;;;5.20;3.33;;;20.40;99.10;;;;;;5019199;28;20211;-47
2021/07/30 09:08:44;;;;;;;8.37;3.40;;;20.50;98.60;;;;;;5043967;28;20567;-49
2021/07/30 09:11:26;;;;;;;8.60;3.20;;;20.60;98.60;;;;;;5042326;28;20192;-45
2021/07/30 09:13:53;;;;;;;11.70;3.97;;;20.70;97.90;;;;;;5042258;28;20196;-46
2021/07/30 09:16:19;;;;;;;4.60;2.97;;;20.60;97.00;;;;;;5038828;28;20318;-44
2021/07/30 09:18:46;;;;;;;5.60;3.27;;;20.50;96.50;;;;;;5043400;28;20664;-46
2021/07/30 09:21:19;;;;;;;4.27;3.77;;;20.60;96.40;;;;;;5021226;28;20323;-47
2021/07/30 09:23:48;;;;;;;6.87;3.33;;;20.60;96.70;;;;;;5043055;28;20226;-46
2021/07/30 09:26:29;;;;;;;5.17;2.97;;;20.50;97.10;;;;;;5042553;28;20203;-44
2021/07/30 09:28:57;;;;;;;4.40;2.67;;;20.60;97.10;;;;;;5041162;28;20191;-45
2021/07/30 09:31:35;;;;;;;8.30;3.20;;;20.70;96.90;;;;;;5044244;28;20211;-46
2021/07/30 09:34:11;;;;;;;5.23;3.10;;;20.80;96.10;;;;;;5035398;28;20195;-46
2021/07/30 09:36:43;;;;;;;5.83;2.50;;;21.00;95.60;;;;;;5023576;28;20557;-44
2021/07/30 09:39:11;;;;;;;9.50;3.43;;;21.20;96.00;;;;;;5040963;28;20183;-46
2021/07/30 09:41:38;;;;;;;3.53;2.70;;;21.20;95.70;;;;;;5044259;28;20207;-45
2021/07/30 09:44:06;;;;;;;5.27;3.00;;;21.30;95.30;;;;;;5039086;28;20187;-44
2021/07/30 09:46:33;;;;;;;4.77;2.80;;;21.30;94.90;;;;;;5043891;28;20719;-44
2021/07/30 09:49:00;;;;;;;5.17;3.40;;;21.30;94.70;;;;;;5035088;28;20207;-45
2021/07/30 09:51:28;;;;;;;6.57;3.57;;;21.30;94.50;;;;;;5028376;28;20258;-46
2021/07/30 09:53:55;;;;;;;5.93;3.07;;;21.30;94.40;;;;;;5040922;28;20657;-45
2021/07/30 09:56:23;;;;;;;3.97;2.67;;;21.40;93.90;;;;;;5043380;28;20218;-46
2021/07/30 09:58:55;;;;;;;4.77;3.37;;;21.30;93.80;;;;;;5031479;28;20200;-49
2021/07/30 10:01:23;;;;;;;4.63;2.73;;;21.20;93.10;;;;;;5036785;28;20580;-47
2021/07/30 10:03:53;;;;;;;4.90;2.77;;;21.20;93.40;;;;;;5030370;28;20199;-47
2021/07/30 10:06:20;;;;;;;4.90;2.50;;;21.10;93.40;;;;;;5024523;28;20327;-47
2021/07/30 10:08:47;;;;;;;4.33;2.20;;;21.10;92.90;;;;;;5032973;28;20192;-45
2021/07/30 10:11:14;;;;;;;4.97;2.77;;;21.10;92.60;;;;;;5032696;28;20219;-46
2021/07/30 10:13:48;;;;;;;5.70;2.47;;;21.20;92.30;;;;;;5035927;28;20188;-45
2021/07/30 10:16:20;;;;;;;7.10;2.53;;;21.40;92.20;;;;;;5034936;28;20909;-45
2021/07/30 10:18:47;;;;;;;3.77;2.40;;;21.50;91.70;;;;;;5034041;28;20681;-45
2021/07/30 10:21:16;;;;;;;4.47;2.83;;;21.40;91.60;;;;;;5032532;28;20293;-48
2021/07/30 10:23:46;;;;;;;4.60;3.03;;;21.40;91.20;;;;;;5024165;28;20203;-46
2021/07/30 10:26:14;;;;;;;3.17;2.60;;;21.40;91.40;;;;;;5037975;28;21801;-44
2021/07/30 10:28:42;;;;;;;4.70;2.63;;;21.50;91.00;;;;;;5034679;28;20196;-47
2021/07/30 10:31:10;;;;;;;4.13;2.33;;;21.50;91.00;;;;;;5026483;28;20191;-46
2021/07/30 10:33:49;;;;;;;5.20;2.83;;;21.50;92.90;;;;;;5038514;28;20219;-46
2021/07/30 10:36:38;;;;;;;4.00;2.30;;;21.70;90.70;;;;;;5027721;28;20258;-45
2021/07/30 10:39:15;;;;;;;4.00;2.20;;;21.70;90.80;;;;;;5020621;28;20214;-45
2021/07/30 10:42:02;;;;;;;5.93;2.30;;;21.70;89.30;;;;;;5032246;28;20309;-46
2021/07/30 10:44:30;;;;;;;4.70;2.60;;;21.90;89.30;;;;;;5032341;28;20196;-44
2021/07/30 10:47:21;;;;;;;2.93;1.57;;;22.00;87.50;;;;;;5037854;28;20973;-46
2021/07/30 10:49:48;;;;;;;5.40;2.30;;;22.20;83.80;;;;;;5035485;28;20202;-43
2021/07/30 10:52:26;;;;;;;3.73;2.20;;;22.10;85.00;;;;;;5031850;28;20200;-45
2021/07/30 10:54:53;;;;;;;5.90;2.50;;;22.30;83.50;;;;;;5023041;28;20273;-42
2021/07/30 10:57:51;;;;;;;5.63;2.57;;;22.40;83.70;;;;;;5041685;28;20771;-43
2021/07/30 11:00:19;;;;;;;5.20;2.30;;;22.60;81.30;;;;;;5035207;28;20279;-47
2021/07/30 11:03:04;;;;;;;4.43;2.73;;;22.50;82.40;;;;;;5035546;28;20239;-50
2021/07/30 11:05:34;;;;;;;5.53;2.40;;;22.60;81.20;;;;;;5039011;28;20201;-47
2021/07/30 11:08:02;;;;;;;2.40;2.20;;;22.80;82.50;;;;;;5012298;28;20381;-47
2021/07/30 11:10:29;;;;;;;5.27;1.93;;;22.90;80.90;;;;;;5042844;28;20278;-47
2021/07/30 11:12:56;;;;;;;4.97;2.40;;;23.00;80.80;;;;;;5037171;28;20194;-49
2021/07/30 11:15:33;;;;;;;3.07;2.27;;;23.10;81.20;;;;;;5034980;28;20278;-46
2021/07/30 11:18:01;;;;;;;4.87;1.97;;;23.10;80.40;;;;;;5026940;28;20192;-47
2021/07/30 11:20:35;;;;;;;3.03;1.93;;;23.10;79.30;;;;;;5041771;28;20216;-51
2021/07/30 11:23:06;;;;;;;3.07;2.10;;;23.00;79.40;;;;;;5026416;28;20390;-46
2021/07/30 11:25:33;;;;;;;2.92;2.22;;;23.10;77.50;;;;;;5021215;28;20239;-42
2021/07/30 11:28:00;;;;;;;2.88;1.90;;;23.00;76.90;;;;;;5022095;28;20709;-41
2021/07/30 11:30:31;;;;;;;4.05;2.40;;;23.00;77.60;;;;;;5034499;28;20242;-43
2021/07/30 11:32:59;;;;;;;7.63;2.60;;;22.90;76.70;;;;;;5037916;28;20192;-44
2021/07/30 11:35:30;;;;;;;4.13;2.25;;;22.90;77.00;;;;;;5041637;28;20776;-43
2021/07/30 11:38:01;;;;;;;4.22;2.10;;;22.70;76.50;;;;;;5026170;28;20298;-45
2021/07/30 11:40:28;;;;;;;3.10;2.20;;;22.70;77.30;;;;;;5020879;28;20265;-42
2021/07/30 11:43:05;;;;;;;4.78;1.90;;;22.70;76.00;;;;;;5027488;28;20219;-41
2021/07/30 11:45:34;;;;;;;5.85;2.58;;;22.60;75.40;;;;;;5042105;28;20201;-44
2021/07/30 11:48:01;;;;;;;2.30;2.10;;;22.60;76.30;;;;;;5024982;28;20230;-43
2021/07/30 11:50:30;;;;;;;3.57;2.23;;;22.60;75.90;;;;;;5045121;28;20192;-42
2021/07/30 11:53:05;;;;;;;4.37;2.30;;;22.70;76.50;;;;;;5037570;28;20528;-41
2021/07/30 11:55:31;;;;;;;6.68;2.30;;;22.70;75.20;;;;;;5026172;28;20584;-44
2021/07/30 11:58:10;;;;;;;4.10;2.33;;;22.90;75.70;;;;;;5030654;28;20214;-41
2021/07/30 12:00:38;;;;;;;2.80;2.20;;;22.90;75.20;;;;;;5042383;28;20199;-42
2021/07/30 12:03:17;;;;;;;3.65;2.00;;;23.00;76.20;;;;;;5041514;28;20226;-41
2021/07/30 12:05:44;;;;;;;4.47;2.40;;;23.30;75.70;;;;;;5036235;28;20790;-41
2021/07/30 12:08:11;;;;;;;5.53;2.50;;;23.50;76.10;;;;;;5027228;28;20192;-41
2021/07/30 12:10:38;;;;;;;8.82;2.67;;;23.60;75.10;;;;;;5026347;28;20204;-41
2021/07/30 12:13:06;;;;;;;3.78;2.10;;;23.80;74.00;;;;;;5040613;28;20908;-44
2021/07/30 12:15:33;;;;;;;5.00;2.38;;;23.90;73.50;;;;;;5037291;28;20204;-43
2021/07/30 12:18:03;;;;;;;2.40;2.20;;;23.90;72.90;;;;;;5036151;28;20192;-42
2021/07/30 12:20:31;;;;;;;2.47;1.90;;;23.90;73.10;;;;;;5038752;28;20212;-43
2021/07/30 12:23:02;;;;;;;4.05;2.30;;;24.00;71.80;;;;;;5034787;28;20586;-40
2021/07/30 12:25:37;;;;;;;2.88;2.13;;;24.10;71.50;;;;;;5027811;28;20207;-42
2021/07/30 12:28:08;;;;;;;2.80;2.10;;;24.30;70.20;;;;;;5037571;28;20190;-45
2021/07/30 12:30:35;;;;;;;5.57;2.00;;;24.40;70.90;;;;;;5039298;28;20203;-44
2021/07/30 12:33:22;;;;;;;3.47;2.13;;;24.40;69.80;;;;;;5031186;28;20275;-46
2021/07/30 12:35:49;;;;;;;3.92;2.10;;;24.30;69.20;;;;;;5039228;28;20224;-43
2021/07/30 12:38:16;;;;;;;6.50;2.83;;;24.30;70.40;;;;;;5037011;28;20248;-44
2021/07/30 12:40:44;;;;;;;4.38;2.20;;;24.20;69.30;;;;;;5032437;28;20203;-42
2021/07/30 12:43:16;;;;;;;3.72;2.08;;;24.00;70.40;;;;;;5042382;28;20415;-46
2021/07/30 12:45:43;;;;;;;3.30;2.20;;;24.20;70.30;;;;;;5031802;28;20239;-44
2021/07/30 12:48:17;;;;;;;5.15;2.03;;;24.40;69.40;;;;;;5029791;28;20188;-57
2021/07/30 12:50:43;;;;;;;3.67;2.03;;;24.40;66.60;;;;;;5033745;28;20203;-44
2021/07/30 12:53:16;;;;;;;4.60;2.40;;;24.30;65.80;;;;;;5037702;28;20192;-43